Merced Regional Macready Field
KMCE : now visible

Airfield :











YOU CAN JOIN US ON...

 
LOGIN :

Register | Disclaimer

   EN    FR    IT 

 









Legend :    VFR   Marginal VFR   IFR   Intensive IFR   Very Intensive IFR
Visi :
Ceiling :
>= 8 km
>= 3000ft
5 to 8 km
1000 to 3000 ft
1500m to 5 km
500 to 1000 ft
800 to 1500m
200 to 500 ft
< 800m
< 200 ft
Symbols :   Thunderstorms  Fog  Heavy snow  Heavy precipitations  Wind > 20 kt






- Airport Elevation : 155 ft
- IATA code : MCE


KMCE - Merced Regional Macready Field

CURRENT METAR :
  • 171753Z AUTO 00000KT 5SM HZ CLR 16/09 A3014 RMK AO2 SLP208 T01560089 10161 20056 50007

EXPIRED METARs :
  • 171653Z AUTO 21003KT 5SM HZ CLR 12/08 A3015 RMK AO2 SLP208 T01220083
  • 171553Z AUTO 00000KT 5SM HZ CLR 09/06 A3014 RMK AO2 SLP206 T00890061
  • 171525Z AUTO 00000KT 4SM BR FEW006 07/05 A3013 RMK AO2 T00670050
  • 171453Z AUTO 00000KT 4SM BR CLR 07/06 A3012 RMK AO2 SLP201 T00670056 53004

TAF KMCE
Valid from the 17 at 18:00 until the 18 at 18:00 UTC


171723Z 1718/1818 VRB03KT 5SM HZ FEW250
FM172000 VRB03KT P6SM FEW250
FM180400 VRB03KT 6SM HZ SKC
TEMPO 1814/1816 3SM BR



MET'MAP, your aeronautical weather chart ! - Copyright ORBIFLY December 2007 - Disclaimer

ORBIFLY MET'MAP TEAM :

Programming & Development : Alexandra Zaïnal
Concept & Development : Baudouin d'Aumeries
Co-Development & Prog : Marc-Olivier Méhu
Technical & hardware support : Manuel Goepfert

Contact : metmap@orbifly.com




SOURCES & CREDITS :

   NOAA       Earth
Advisory